Time;durP1;ratioP1;P1;durP2;ratioP2;P2;SDS_P1;SDS_P2;PMS_P1;PMS_P2;Temp;Humidity;BMP_temperature;BMP_pressure;BME280_temperature;BME280_humidity;BME280_pressure;Samples;Min_cycle;Max_cycle;Signal;HPM_P1;HPM_P2
2023/05/11 00:00:10;;;;;;;6.93;5.05;;;22.40;57.90;;;;;;5091688;28;20039;-65
2023/05/11 00:02:36;;;;;;;8.48;5.20;;;22.20;57.80;;;;;;5090427;28;20038;-65
2023/05/11 00:05:02;;;;;;;6.80;4.32;;;22.30;58.00;;;;;;5073216;28;20093;-64
2023/05/11 00:07:28;;;;;;;8.90;5.68;;;22.20;57.90;;;;;;5091536;28;20036;-64
2023/05/11 00:09:54;;;;;;;9.93;4.90;;;22.40;57.90;;;;;;5091695;28;20042;-64
2023/05/11 00:12:20;;;;;;;7.30;4.70;;;22.40;57.90;;;;;;5091556;28;20089;-64
2023/05/11 00:14:46;;;;;;;6.57;4.30;;;22.30;57.90;;;;;;5088305;28;20487;-64
2023/05/11 00:17:12;;;;;;;7.28;4.90;;;22.30;57.90;;;;;;5091327;28;20040;-64
2023/05/11 00:19:38;;;;;;;8.48;4.07;;;22.30;58.00;;;;;;5091413;28;20501;-64
2023/05/11 00:22:04;;;;;;;6.03;4.57;;;22.20;57.90;;;;;;5091025;28;20032;-65
2023/05/11 00:24:30;;;;;;;7.60;4.57;;;22.30;57.90;;;;;;5091474;28;20123;-64
2023/05/11 00:26:56;;;;;;;10.38;4.60;;;22.30;57.90;;;;;;5091625;28;20123;-64
2023/05/11 00:29:22;;;;;;;8.00;4.97;;;22.20;57.90;;;;;;5089731;28;20028;-65
2023/05/11 00:31:48;;;;;;;5.10;4.10;;;22.30;57.90;;;;;;5073355;28;20089;-64
2023/05/11 00:34:16;;;;;;;6.10;4.00;;;22.10;57.90;;;;;;5080191;28;20033;-65
2023/05/11 00:36:42;;;;;;;6.03;3.90;;;22.20;57.90;;;;;;5070889;28;20495;-64
2023/05/11 00:39:11;;;;;;;8.57;4.43;;;22.20;57.90;;;;;;5086458;28;20032;-64
2023/05/11 00:41:37;;;;;;;6.25;4.30;;;22.10;57.90;;;;;;5090080;28;20047;-64
2023/05/11 00:44:04;;;;;;;5.38;4.70;;;22.10;57.90;;;;;;5089799;28;20441;-65
2023/05/11 00:46:30;;;;;;;8.63;5.85;;;22.30;58.00;;;;;;5073149;28;20044;-64
2023/05/11 00:48:57;;;;;;;6.20;4.40;;;22.10;57.90;;;;;;5090703;28;20031;-63
2023/05/11 00:51:23;;;;;;;8.52;4.22;;;22.10;58.10;;;;;;5089618;28;20492;-64
2023/05/11 00:53:50;;;;;;;6.35;3.97;;;22.00;58.00;;;;;;5089948;28;20383;-63
2023/05/11 00:56:16;;;;;;;5.82;4.20;;;22.10;58.10;;;;;;5091034;28;20335;-64
2023/05/11 00:58:42;;;;;;;7.25;3.50;;;22.00;57.90;;;;;;5090771;28;20024;-64
2023/05/11 01:01:09;;;;;;;7.88;4.00;;;22.10;57.90;;;;;;5090893;28;20403;-66
2023/05/11 01:03:36;;;;;;;5.75;3.97;;;22.00;57.80;;;;;;5089706;28;20403;-64
2023/05/11 01:06:10;;;;;;;8.30;4.85;;;22.00;57.80;;;;;;5090645;28;20557;-64
2023/05/11 01:08:45;;;;;;;8.90;3.92;;;22.10;57.80;;;;;;5090765;28;20036;-64
2023/05/11 01:11:27;;;;;;;6.47;4.30;;;22.00;57.70;;;;;;5090638;28;20036;-64
2023/05/11 01:14:22;;;;;;;8.07;4.03;;;22.20;57.80;;;;;;5089435;28;20038;-64
2023/05/11 01:16:55;;;;;;;8.23;4.53;;;22.10;57.80;;;;;;5089520;28;20114;-64
2023/05/11 01:19:40;;;;;;;7.50;4.30;;;22.10;57.70;;;;;;5090697;28;20082;-65
2023/05/11 01:22:40;;;;;;;5.63;3.97;;;22.20;57.70;;;;;;5089533;28;20036;-64
2023/05/11 01:25:16;;;;;;;5.78;3.60;;;22.00;57.60;;;;;;5051124;28;20056;-64
2023/05/11 01:28:20;;;;;;;6.38;3.95;;;22.10;57.70;;;;;;5051495;28;20040;-64
2023/05/11 01:30:52;;;;;;;6.10;3.40;;;22.00;57.70;;;;;;5051199;28;20060;-62
2023/05/11 01:33:24;;;;;;;6.60;3.80;;;22.00;57.80;;;;;;5068001;28;20033;-65
2023/05/11 01:35:55;;;;;;;4.35;3.20;;;22.00;57.80;;;;;;5071335;28;20039;-64
2023/05/11 01:38:23;;;;;;;4.75;3.33;;;21.90;57.80;;;;;;5054597;28;20056;-64
2023/05/11 01:40:54;;;;;;;5.57;3.53;;;21.90;57.80;;;;;;5071586;28;20072;-64
2023/05/11 01:43:23;;;;;;;5.30;3.45;;;21.90;57.90;;;;;;5054759;28;20036;-64
2023/05/11 01:45:51;;;;;;;5.53;3.50;;;21.90;58.10;;;;;;5054692;28;20039;-65
2023/05/11 01:48:21;;;;;;;5.25;3.67;;;21.90;58.10;;;;;;5054261;28;20049;-64
2023/05/11 01:50:50;;;;;;;4.53;3.30;;;21.80;58.00;;;;;;5071403;28;20040;-64
2023/05/11 01:53:18;;;;;;;5.28;3.50;;;21.80;58.00;;;;;;5054360;28;20052;-64
2023/05/11 01:55:46;;;;;;;4.28;3.08;;;21.90;58.10;;;;;;5071051;28;20124;-64
2023/05/11 01:58:17;;;;;;;3.85;2.97;;;21.90;58.10;;;;;;5071137;28;20032;-64
2023/05/11 02:00:45;;;;;;;4.90;3.70;;;21.90;58.20;;;;;;5059617;28;20118;-64
2023/05/11 02:03:12;;;;;;;4.70;3.50;;;21.90;58.20;;;;;;5093806;28;20032;-65
2023/05/11 02:05:41;;;;;;;4.20;3.35;;;21.90;58.10;;;;;;5093655;28;20040;-65
2023/05/11 02:08:08;;;;;;;6.85;4.25;;;21.90;58.00;;;;;;5092349;28;20062;-64
2023/05/11 02:10:35;;;;;;;8.82;3.55;;;21.90;58.00;;;;;;5092201;28;20036;-64
2023/05/11 02:13:04;;;;;;;4.88;3.88;;;21.90;58.00;;;;;;5092432;28;20491;-64
2023/05/11 02:15:32;;;;;;;7.20;4.90;;;21.80;58.00;;;;;;5089109;28;20052;-65
2023/05/11 02:17:59;;;;;;;8.05;5.25;;;21.90;58.20;;;;;;5092310;28;20036;-64
2023/05/11 02:20:26;;;;;;;8.10;4.97;;;21.80;58.00;;;;;;5091683;28;20575;-64
2023/05/11 02:22:53;;;;;;;9.57;5.35;;;21.90;58.20;;;;;;5093439;28;20040;-64
2023/05/11 02:25:20;;;;;;;7.65;5.25;;;21.90;58.20;;;;;;5092152;28;20047;-64
2023/05/11 02:27:47;;;;;;;7.97;5.75;;;21.70;58.10;;;;;;5093279;28;20170;-64
2023/05/11 02:30:14;;;;;;;9.32;5.50;;;21.80;58.10;;;;;;5093122;28;20086;-64
2023/05/11 02:32:47;;;;;;;8.32;5.72;;;21.80;58.10;;;;;;5093322;28;20028;-64
2023/05/11 02:35:19;;;;;;;8.65;5.68;;;21.80;58.20;;;;;;5093087;28;20059;-63
2023/05/11 02:37:47;;;;;;;8.05;4.82;;;21.90;58.30;;;;;;5109906;28;20446;-64
2023/05/11 02:40:19;;;;;;;7.07;4.18;;;21.70;58.30;;;;;;5110484;28;20093;-64
2023/05/11 02:42:52;;;;;;;4.22;3.40;;;21.80;58.30;;;;;;5110977;28;20055;-64
2023/05/11 02:45:19;;;;;;;5.75;3.88;;;21.60;58.10;;;;;;5110744;28;20039;-64
2023/05/11 02:47:51;;;;;;;6.18;4.38;;;21.70;58.20;;;;;;5110536;28;20039;-64
2023/05/11 02:50:23;;;;;;;10.23;3.70;;;21.80;58.20;;;;;;5090035;28;20043;-64
2023/05/11 02:52:54;;;;;;;6.47;3.95;;;21.70;58.20;;;;;;5090140;28;20055;-64
2023/05/11 02:55:22;;;;;;;8.90;4.50;;;21.70;58.10;;;;;;5090188;28;20036;-64
2023/05/11 02:57:48;;;;;;;7.97;4.78;;;21.70;58.20;;;;;;5090101;28;20152;-64
2023/05/11 03:00:16;;;;;;;6.95;4.88;;;21.70;58.20;;;;;;5073168;28;20042;-64
2023/05/11 03:02:43;;;;;;;7.70;4.35;;;21.80;58.10;;;;;;5073198;28;20040;-64
2023/05/11 03:05:09;;;;;;;7.28;4.85;;;21.80;58.10;;;;;;5073165;28;20067;-65
2023/05/11 03:07:35;;;;;;;6.90;5.15;;;21.80;58.00;;;;;;5090075;28;20117;-65
2023/05/11 03:10:02;;;;;;;5.75;4.38;;;21.80;58.00;;;;;;5072931;28;20039;-63
2023/05/11 03:12:34;;;;;;;9.73;4.93;;;21.70;58.00;;;;;;5089855;28;20066;-65
2023/05/11 03:15:02;;;;;;;8.98;5.70;;;21.60;57.90;;;;;;5073075;28;20048;-64
2023/05/11 03:17:30;;;;;;;13.18;5.57;;;21.70;58.00;;;;;;5072845;28;20437;-64
2023/05/11 03:19:58;;;;;;;11.90;5.35;;;21.60;57.90;;;;;;5072501;28;20102;-62
2023/05/11 03:22:26;;;;;;;7.95;5.18;;;21.70;58.00;;;;;;5089677;28;20054;-64
2023/05/11 03:24:52;;;;;;;12.02;4.30;;;21.80;57.90;;;;;;5089735;28;20044;-64
2023/05/11 03:27:19;;;;;;;7.32;4.53;;;21.80;57.70;;;;;;5076159;28;20052;-65
2023/05/11 03:29:47;;;;;;;9.90;4.65;;;21.80;57.70;;;;;;5090859;28;20413;-64
2023/05/11 03:32:14;;;;;;;10.30;4.05;;;21.70;57.50;;;;;;5090996;28;20446;-64
2023/05/11 03:34:41;;;;;;;8.32;4.50;;;21.70;57.60;;;;;;5090756;28;20040;-65
2023/05/11 03:37:12;;;;;;;6.85;4.65;;;21.70;57.50;;;;;;5090816;28;20403;-64
2023/05/11 03:39:40;;;;;;;9.32;4.85;;;21.90;57.50;;;;;;5090614;28;20047;-64
2023/05/11 03:42:07;;;;;;;9.60;4.55;;;21.70;57.40;;;;;;5090584;28;20028;-64
2023/05/11 03:44:35;;;;;;;8.30;5.22;;;21.90;57.60;;;;;;5090491;28;20040;-64
2023/05/11 03:47:03;;;;;;;9.52;4.70;;;21.80;57.50;;;;;;5092153;28;20143;-64
2023/05/11 03:49:30;;;;;;;7.88;4.80;;;21.80;57.60;;;;;;5090333;28;20101;-64
2023/05/11 03:51:56;;;;;;;9.65;5.03;;;22.00;57.50;;;;;;5090382;28;20501;-64
2023/05/11 03:54:25;;;;;;;9.68;4.93;;;22.10;56.90;;;;;;5090410;28;20032;-64
2023/05/11 03:56:51;;;;;;;8.40;4.88;;;22.30;56.50;;;;;;5091460;28;20028;-64
2023/05/11 03:59:18;;;;;;;10.18;4.68;;;22.40;56.20;;;;;;5073878;28;20040;-65
2023/05/11 04:01:45;;;;;;;8.10;4.40;;;22.50;56.10;;;;;;5091817;28;20028;-64
2023/05/11 04:04:11;;;;;;;12.68;4.50;;;22.40;55.90;;;;;;5091588;28;20032;-65
2023/05/11 04:06:37;;;;;;;8.70;4.32;;;22.40;56.00;;;;;;5090332;28;20084;-63
2023/05/11 04:09:09;;;;;;;6.18;3.88;;;22.50;56.10;;;;;;5089984;28;20028;-69
2023/05/11 04:11:38;;;;;;;4.93;3.53;;;22.40;56.00;;;;;;5093803;28;20419;-69
2023/05/11 04:14:04;;;;;;;8.85;4.03;;;22.60;60.20;;;;;;5089185;28;20476;-69
2023/05/11 04:16:30;;;;;;;8.75;4.15;;;22.90;60.40;;;;;;5072196;28;20118;-69
2023/05/11 04:18:56;;;;;;;8.10;4.57;;;23.10;59.70;;;;;;5088779;28;20044;-69
2023/05/11 04:21:22;;;;;;;7.75;3.85;;;23.20;57.40;;;;;;5088762;28;20055;-69
2023/05/11 04:23:48;;;;;;;5.32;4.00;;;23.10;54.60;;;;;;5089146;28;20095;-69
2023/05/11 04:26:14;;;;;;;6.97;4.25;;;23.10;54.30;;;;;;5072104;28;20159;-65
2023/05/11 04:28:40;;;;;;;7.30;4.72;;;23.10;53.70;;;;;;5071720;28;20043;-65
2023/05/11 04:31:06;;;;;;;10.20;4.75;;;23.00;53.00;;;;;;5103394;28;20064;-65
2023/05/11 04:33:32;;;;;;;11.77;5.93;;;22.90;52.70;;;;;;5109100;28;20070;-65
2023/05/11 04:35:58;;;;;;;12.52;6.50;;;22.90;53.00;;;;;;5074967;28;20050;-64
2023/05/11 04:38:24;;;;;;;11.38;7.20;;;22.80;53.30;;;;;;5108863;28;20056;-65
2023/05/11 04:40:50;;;;;;;12.38;6.68;;;22.80;53.60;;;;;;5092152;28;20039;-64
2023/05/11 04:43:17;;;;;;;12.73;6.00;;;22.70;54.00;;;;;;5093673;28;20048;-64
2023/05/11 04:45:48;;;;;;;11.05;5.88;;;22.80;54.40;;;;;;5089728;28;20379;-64
2023/05/11 04:48:15;;;;;;;12.07;6.32;;;22.70;54.70;;;;;;5089752;28;20128;-65
2023/05/11 04:50:41;;;;;;;12.85;5.95;;;22.70;54.90;;;;;;5089483;28;20052;-64
2023/05/11 04:53:08;;;;;;;17.55;6.93;;;22.70;55.10;;;;;;5088783;28;20047;-64
2023/05/11 04:55:35;;;;;;;9.60;6.88;;;22.70;55.00;;;;;;5089682;28;20055;-65
2023/05/11 04:58:01;;;;;;;14.40;6.47;;;22.70;55.10;;;;;;5089809;28;20040;-71
2023/05/11 05:00:27;;;;;;;14.45;6.30;;;22.80;55.30;;;;;;5090851;28;20028;-66
2023/05/11 05:02:53;;;;;;;7.28;4.55;;;22.70;55.70;;;;;;5090977;28;20031;-67
2023/05/11 05:05:19;;;;;;;13.00;6.05;;;22.70;55.70;;;;;;5089295;28;20423;-68
2023/05/11 05:07:45;;;;;;;10.13;5.13;;;22.80;55.60;;;;;;5090947;28;20044;-64
2023/05/11 05:10:11;;;;;;;13.45;4.88;;;22.80;51.00;;;;;;5093878;28;20031;-66
2023/05/11 05:12:38;;;;;;;11.52;4.22;;;22.90;50.60;;;;;;5093506;28;20032;-66
2023/05/11 05:15:05;;;;;;;5.45;3.42;;;22.90;50.70;;;;;;5094690;28;20036;-66
2023/05/11 05:17:31;;;;;;;5.18;4.07;;;22.90;52.60;;;;;;5093165;28;20040;-66
2023/05/11 05:19:57;;;;;;;6.75;4.60;;;22.90;50.80;;;;;;5094345;28;20048;-66
2023/05/11 05:22:24;;;;;;;1.38;1.30;;;23.00;51.00;;;;;;5093319;28;20106;-66
2023/05/11 05:24:51;;;;;;;1.98;1.73;;;23.00;57.10;;;;;;5093742;28;20183;-65
2023/05/11 05:27:17;;;;;;;1.45;1.35;;;23.20;62.50;;;;;;5093243;28;20036;-66
2023/05/11 05:29:44;;;;;;;2.58;1.83;;;23.30;61.20;;;;;;5093491;28;20077;-65
2023/05/11 05:32:10;;;;;;;6.95;2.33;;;23.40;60.30;;;;;;5093091;28;20024;-64
2023/05/11 05:34:36;;;;;;;1.92;1.83;;;23.40;60.50;;;;;;5092012;28;20048;-64
2023/05/11 05:37:03;;;;;;;1.77;1.58;;;23.40;61.70;;;;;;5074995;28;20048;-66
2023/05/11 05:39:29;;;;;;;3.60;2.03;;;23.50;60.40;;;;;;5058449;28;20138;-66
2023/05/11 05:41:55;;;;;;;1.17;1.10;;;23.60;59.70;;;;;;5074954;28;20039;-65
2023/05/11 05:44:22;;;;;;;8.13;5.13;;;23.40;57.90;;;;;;5074731;28;20047;-66
2023/05/11 05:46:48;;;;;;;7.13;4.88;;;23.40;57.50;;;;;;5074607;28;20419;-66
2023/05/11 05:49:14;;;;;;;6.90;4.57;;;23.60;56.30;;;;;;5091265;28;20078;-66
2023/05/11 05:51:41;;;;;;;6.22;4.18;;;23.50;57.20;;;;;;5091333;28;20067;-66
2023/05/11 05:54:08;;;;;;;5.63;4.45;;;23.60;56.40;;;;;;5074490;28;20125;-63
2023/05/11 05:56:34;;;;;;;4.60;4.05;;;23.50;54.90;;;;;;5073951;28;20115;-66
2023/05/11 05:59:00;;;;;;;10.90;4.57;;;23.40;53.80;;;;;;5074296;28;20036;-65
2023/05/11 06:01:27;;;;;;;6.35;4.28;;;23.50;52.90;;;;;;5074326;28;20077;-65
2023/05/11 06:03:54;;;;;;;5.53;2.60;;;23.50;53.60;;;;;;5074107;28;20083;-65
2023/05/11 06:06:20;;;;;;;5.80;3.72;;;23.40;54.00;;;;;;5087713;28;20039;-65
2023/05/11 06:08:46;;;;;;;3.70;2.90;;;23.30;54.00;;;;;;5092220;28;20094;-66
2023/05/11 06:11:12;;;;;;;5.38;2.83;;;23.40;54.30;;;;;;5090274;28;20024;-65
2023/05/11 06:13:38;;;;;;;5.43;3.38;;;23.40;54.70;;;;;;5091923;28;20073;-66
2023/05/11 06:16:04;;;;;;;4.60;3.38;;;23.40;54.60;;;;;;5091782;28;20475;-66
2023/05/11 06:18:33;;;;;;;4.85;2.78;;;23.40;54.30;;;;;;5092082;28;20114;-67
2023/05/11 06:21:01;;;;;;;17.27;5.13;;;23.40;54.00;;;;;;5091975;28;20040;-65
2023/05/11 06:23:29;;;;;;;5.05;2.67;;;23.40;54.00;;;;;;5074002;28;20134;-66
2023/05/11 06:25:56;;;;;;;3.22;2.90;;;23.40;54.20;;;;;;5074078;28;20044;-67
2023/05/11 06:28:23;;;;;;;5.38;2.85;;;23.40;54.00;;;;;;5074181;28;20135;-66
2023/05/11 06:30:50;;;;;;;6.80;3.15;;;23.40;53.80;;;;;;5074241;28;20040;-65
2023/05/11 06:33:16;;;;;;;6.25;2.58;;;23.50;53.60;;;;;;5070502;28;20034;-66
2023/05/11 06:35:42;;;;;;;4.60;2.65;;;23.40;53.60;;;;;;5090528;28;20127;-66
2023/05/11 06:38:11;;;;;;;3.17;2.83;;;23.50;53.50;;;;;;5071680;28;20502;-66
2023/05/11 06:40:37;;;;;;;3.30;2.80;;;23.40;53.50;;;;;;5072626;28;20406;-68
2023/05/11 06:43:04;;;;;;;4.35;2.85;;;23.50;53.60;;;;;;5070449;28;20037;-67
2023/05/11 06:45:45;;;;;;;2.85;2.53;;;23.50;53.60;;;;;;5033424;28;20044;-66
2023/05/11 06:48:11;;;;;;;3.58;2.75;;;23.60;53.50;;;;;;5057915;28;20044;-66
2023/05/11 06:50:37;;;;;;;2.88;2.20;;;23.50;53.40;;;;;;5069876;28;20064;-65
2023/05/11 06:53:03;;;;;;;7.13;3.33;;;23.60;53.30;;;;;;5070276;28;20106;-69
2023/05/11 06:55:29;;;;;;;3.70;2.58;;;23.60;53.10;;;;;;5053387;28;20404;-65
2023/05/11 06:57:58;;;;;;;3.50;2.53;;;23.60;53.30;;;;;;5070095;28;20042;-66
2023/05/11 07:00:24;;;;;;;3.85;2.97;;;23.50;53.30;;;;;;5067888;28;20135;-66
2023/05/11 07:02:50;;;;;;;7.07;3.25;;;23.50;53.30;;;;;;5070085;28;20044;-65
2023/05/11 07:05:16;;;;;;;3.28;2.00;;;23.60;52.40;;;;;;5069966;28;20049;-68
2023/05/11 07:07:42;;;;;;;4.20;1.63;;;23.50;52.30;;;;;;5083411;28;20162;-68
2023/05/11 07:10:09;;;;;;;1.17;1.08;;;23.60;53.30;;;;;;5090113;28;20036;-64
2023/05/11 07:12:36;;;;;;;1.30;1.20;;;23.70;53.00;;;;;;5073344;28;20043;-64
2023/05/11 07:15:02;;;;;;;4.35;1.60;;;23.80;54.10;;;;;;5056365;28;20036;-65
2023/05/11 07:17:29;;;;;;;7.68;1.85;;;23.90;53.40;;;;;;5089360;28;20040;-68
2023/05/11 07:19:55;;;;;;;3.72;1.35;;;24.00;52.20;;;;;;5110000;28;20044;-65
2023/05/11 07:22:21;;;;;;;3.03;2.40;;;23.90;53.20;;;;;;5110399;28;20063;-63
2023/05/11 07:24:47;;;;;;;2.92;1.98;;;23.80;50.60;;;;;;5110184;28;20067;-67
2023/05/11 07:27:14;;;;;;;2.72;2.38;;;23.80;51.50;;;;;;5109667;28;20048;-67
2023/05/11 07:29:40;;;;;;;2.40;2.17;;;24.00;50.30;;;;;;5110237;28;20406;-67
2023/05/11 07:32:06;;;;;;;2.60;1.98;;;23.90;50.40;;;;;;5109150;28;20154;-65
2023/05/11 07:34:32;;;;;;;4.10;2.58;;;23.80;51.40;;;;;;5109983;28;20035;-65
2023/05/11 07:36:58;;;;;;;5.38;2.60;;;23.90;51.40;;;;;;5109721;28;20036;-66
2023/05/11 07:39:24;;;;;;;4.95;1.92;;;23.90;52.80;;;;;;5109972;28;20627;-65
2023/05/11 07:41:50;;;;;;;4.28;2.20;;;23.90;52.10;;;;;;5075339;28;20047;-64
2023/05/11 07:44:16;;;;;;;3.88;1.65;;;23.90;51.50;;;;;;5110220;28;20132;-64
2023/05/11 07:46:42;;;;;;;3.58;2.67;;;23.90;51.20;;;;;;5109694;28;20071;-64
2023/05/11 07:49:09;;;;;;;2.83;2.47;;;23.80;49.00;;;;;;5109783;28;20050;-65
2023/05/11 07:51:36;;;;;;;3.17;1.92;;;23.90;51.00;;;;;;5092783;28;20027;-65
2023/05/11 07:54:02;;;;;;;2.83;2.20;;;24.00;50.90;;;;;;5107128;28;20086;-64
2023/05/11 07:56:28;;;;;;;2.40;2.20;;;23.90;50.30;;;;;;5091395;28;20044;-64
2023/05/11 07:58:54;;;;;;;2.15;1.98;;;23.80;49.40;;;;;;5049169;28;20492;-64
2023/05/11 08:01:21;;;;;;;2.75;1.83;;;24.00;51.70;;;;;;5032219;28;20068;-65
2023/05/11 08:03:47;;;;;;;2.38;1.83;;;23.90;51.50;;;;;;5048876;28;20064;-64
2023/05/11 08:06:13;;;;;;;4.88;2.42;;;23.90;50.60;;;;;;5048701;28;20051;-62
2023/05/11 08:08:39;;;;;;;4.07;2.90;;;23.90;50.10;;;;;;5046531;28;20050;-65
2023/05/11 08:11:05;;;;;;;4.90;2.47;;;23.90;48.40;;;;;;5029223;28;20033;-65
2023/05/11 08:13:31;;;;;;;2.22;1.83;;;23.80;51.30;;;;;;5012127;28;20401;-66
2023/05/11 08:15:57;;;;;;;3.35;2.08;;;23.80;51.80;;;;;;5012219;28;20040;-64
2023/05/11 08:18:23;;;;;;;2.35;1.90;;;23.90;52.10;;;;;;5028696;28;20057;-64
2023/05/11 08:20:49;;;;;;;3.03;2.08;;;23.80;50.30;;;;;;5028929;28;20099;-65
2023/05/11 08:23:17;;;;;;;2.17;1.77;;;23.80;49.60;;;;;;5028748;28;20044;-66
2023/05/11 08:25:53;;;;;;;5.32;2.20;;;23.90;53.60;;;;;;5012001;28;20045;-66
2023/05/11 08:28:20;;;;;;;4.03;2.08;;;23.80;52.00;;;;;;5028791;28;20370;-66
2023/05/11 08:30:52;;;;;;;5.00;2.72;;;23.80;51.30;;;;;;5065098;28;20041;-65
2023/05/11 08:33:19;;;;;;;6.95;2.38;;;23.80;45.50;;;;;;5070962;28;20032;-65
2023/05/11 08:35:45;;;;;;;3.75;2.03;;;23.80;50.30;;;;;;5070860;28;20081;-66
2023/05/11 08:38:12;;;;;;;2.45;1.80;;;23.70;49.50;;;;;;5071008;28;20453;-67
2023/05/11 08:40:45;;;;;;;4.30;1.63;;;23.70;50.40;;;;;;5075616;28;20028;-66
2023/05/11 08:43:13;;;;;;;5.68;2.17;;;23.70;53.70;;;;;;5091129;28;20032;-65
2023/05/11 08:45:43;;;;;;;3.92;2.25;;;23.80;49.60;;;;;;5094073;28;20080;-65
2023/05/11 08:48:14;;;;;;;4.97;2.00;;;23.70;48.80;;;;;;5095411;28;20159;-64
2023/05/11 08:50:40;;;;;;;5.38;4.88;;;23.90;50.00;;;;;;5095051;28;20035;-64
2023/05/11 08:53:06;;;;;;;2.47;2.05;;;23.90;51.00;;;;;;5109082;28;20055;-64
2023/05/11 08:55:34;;;;;;;2.65;1.55;;;23.90;48.60;;;;;;5093667;28;20078;-64
2023/05/11 08:58:04;;;;;;;4.80;1.85;;;23.90;46.00;;;;;;5094702;28;20395;-64
2023/05/11 09:00:31;;;;;;;2.72;1.98;;;24.00;49.70;;;;;;5094938;28;20115;-65
2023/05/11 09:02:57;;;;;;;2.15;1.95;;;24.00;50.40;;;;;;5095156;28;20036;-64
2023/05/11 09:05:24;;;;;;;2.60;2.00;;;24.10;49.60;;;;;;5094961;28;20031;-64
2023/05/11 09:07:55;;;;;;;5.40;1.63;;;24.00;48.20;;;;;;5094924;28;20032;-64
2023/05/11 09:10:21;;;;;;;2.05;1.75;;;23.90;50.60;;;;;;5095037;28;20081;-62
2023/05/11 09:12:47;;;;;;;5.13;2.25;;;24.00;51.10;;;;;;5094914;28;20050;-64
2023/05/11 09:15:13;;;;;;;2.60;2.30;;;24.00;48.70;;;;;;5094864;28;20377;-65
2023/05/11 09:17:39;;;;;;;4.38;1.83;;;23.80;52.30;;;;;;5094712;28;20439;-66
2023/05/11 09:20:08;;;;;;;2.58;1.95;;;23.80;51.80;;;;;;5088027;28;20431;-66
2023/05/11 09:22:43;;;;;;;2.42;2.05;;;23.90;50.80;;;;;;5074594;28;20086;-64
2023/05/11 09:25:16;;;;;;;3.53;2.08;;;23.90;50.50;;;;;;5074227;28;20052;-64
2023/05/11 09:27:46;;;;;;;4.50;2.05;;;23.70;52.30;;;;;;5072626;28;20404;-65
2023/05/11 09:30:24;;;;;;;5.18;2.10;;;23.70;53.50;;;;;;5072733;28;20027;-65
2023/05/11 09:32:55;;;;;;;3.10;2.00;;;23.90;48.40;;;;;;5074566;28;20162;-66
2023/05/11 09:35:30;;;;;;;3.75;2.10;;;23.80;46.70;;;;;;5074140;28;20025;-64
2023/05/11 09:38:01;;;;;;;3.15;2.30;;;23.90;47.10;;;;;;5073805;28;20028;-66
2023/05/11 09:40:27;;;;;;;2.35;1.90;;;24.00;47.50;;;;;;5075851;28;20080;-65
2023/05/11 09:42:53;;;;;;;5.07;2.15;;;24.00;49.70;;;;;;5094267;28;20035;-65
2023/05/11 09:45:43;;;;;;;7.18;3.10;;;24.10;49.60;;;;;;5093997;28;20036;-64
2023/05/11 09:48:34;;;;;;;2.25;2.00;;;24.30;50.20;;;;;;5094079;28;20028;-65
2023/05/11 09:51:04;;;;;;;3.35;2.03;;;24.20;48.60;;;;;;5074541;28;20546;-65
2023/05/11 09:53:43;;;;;;;5.88;2.97;;;24.40;57.50;;;;;;5091220;28;20050;-66
2023/05/11 09:56:10;;;;;;;4.22;2.33;;;24.90;61.30;;;;;;5090614;28;20051;-66
2023/05/11 09:58:48;;;;;;;4.22;2.25;;;25.20;49.60;;;;;;5091542;28;20127;-64
2023/05/11 10:01:15;;;;;;;6.00;2.38;;;24.90;46.00;;;;;;5091586;28;20039;-65
2023/05/11 10:04:02;;;;;;;2.28;2.08;;;24.80;46.10;;;;;;5091099;28;20040;-66
2023/05/11 10:06:49;;;;;;;3.95;2.80;;;24.70;44.70;;;;;;5074343;28;20036;-67
2023/05/11 10:09:22;;;;;;;5.97;2.70;;;24.50;46.00;;;;;;5090774;28;20157;-65
2023/05/11 10:11:50;;;;;;;6.50;2.72;;;24.70;47.00;;;;;;5089429;28;20036;-65
2023/05/11 10:14:18;;;;;;;2.30;2.10;;;24.60;48.10;;;;;;5090821;28;20130;-66
2023/05/11 10:16:46;;;;;;;3.92;1.88;;;24.70;48.00;;;;;;5073774;28;20082;-65
2023/05/11 10:19:12;;;;;;;2.92;2.20;;;24.70;50.00;;;;;;5090165;28;20040;-65
2023/05/11 10:21:38;;;;;;;2.45;1.70;;;24.80;51.90;;;;;;5070719;28;20047;-66
2023/05/11 10:24:06;;;;;;;5.53;1.85;;;24.70;54.50;;;;;;5083842;28;20059;-66
2023/05/11 10:26:32;;;;;;;2.17;1.70;;;24.70;53.90;;;;;;5073854;28;20074;-66
2023/05/11 10:29:00;;;;;;;2.58;1.90;;;24.70;49.10;;;;;;5092881;28;20072;-65
2023/05/11 10:31:27;;;;;;;2.20;1.75;;;24.50;52.30;;;;;;5092110;28;20401;-65
2023/05/11 10:33:54;;;;;;;2.05;1.80;;;24.60;49.00;;;;;;5093105;28;20036;-67
2023/05/11 10:36:23;;;;;;;2.28;1.63;;;24.70;50.20;;;;;;5093168;28;20115;-67
2023/05/11 10:38:49;;;;;;;2.05;1.85;;;24.40;44.60;;;;;;5093096;28;20055;-67
2023/05/11 10:41:30;;;;;;;4.25;2.45;;;24.30;50.70;;;;;;5091029;28;20028;-67
2023/05/11 10:44:31;;;;;;;3.33;2.47;;;24.30;50.40;;;;;;5092727;28;20029;-66
2023/05/11 10:47:13;;;;;;;3.35;2.10;;;24.40;48.80;;;;;;5092111;28;20114;-67
2023/05/11 10:49:55;;;;;;;3.33;1.90;;;24.40;49.50;;;;;;5092650;28;20086;-67
2023/05/11 10:52:35;;;;;;;1.85;1.50;;;24.10;48.10;;;;;;5092777;28;20032;-67
2023/05/11 10:55:38;;;;;;;2.58;1.75;;;24.20;54.30;;;;;;5091615;28;20496;-66
2023/05/11 10:58:12;;;;;;;1.70;1.45;;;24.30;58.60;;;;;;5091404;28;20541;-67
2023/05/11 11:01:18;;;;;;;3.03;2.08;;;24.30;54.80;;;;;;5091677;28;20035;-66
2023/05/11 11:04:04;;;;;;;1.63;1.50;;;24.40;54.40;;;;;;5093104;28;20079;-66
2023/05/11 11:06:31;;;;;;;1.50;1.40;;;24.30;54.10;;;;;;5074485;28;20032;-66
2023/05/11 11:08:59;;;;;;;1.63;1.50;;;24.30;53.70;;;;;;5092594;28;20043;-66
2023/05/11 11:11:31;;;;;;;1.58;1.48;;;24.20;54.00;;;;;;5092719;28;20032;-68
2023/05/11 11:14:01;;;;;;;2.83;2.00;;;24.30;54.20;;;;;;5092303;28;20092;-67
2023/05/11 11:16:31;;;;;;;4.63;2.30;;;24.10;54.20;;;;;;5092569;28;20032;-67
2023/05/11 11:19:28;;;;;;;1.50;1.40;;;24.10;54.00;;;;;;5092225;28;20086;-66
2023/05/11 11:21:55;;;;;;;1.52;1.42;;;24.20;53.30;;;;;;5092405;28;20036;-65
2023/05/11 11:24:39;;;;;;;5.22;1.75;;;24.10;54.00;;;;;;5092047;28;20024;-66
2023/05/11 11:27:07;;;;;;;2.88;1.80;;;24.20;54.30;;;;;;5092382;28;20127;-65
2023/05/11 11:29:37;;;;;;;4.13;1.63;;;24.10;53.20;;;;;;5092081;28;20032;-65
2023/05/11 11:32:18;;;;;;;2.08;1.30;;;24.00;54.10;;;;;;5090918;28;20047;-63
2023/05/11 11:34:48;;;;;;;1.90;1.70;;;24.00;53.80;;;;;;5092232;28;20032;-66
2023/05/11 11:37:15;;;;;;;2.70;1.50;;;24.10;54.80;;;;;;5090931;28;20028;-66
2023/05/11 11:39:41;;;;;;;4.05;1.80;;;24.20;51.10;;;;;;5092083;28;20032;-66
2023/05/11 11:42:16;;;;;;;2.88;1.80;;;24.00;53.20;;;;;;5092066;28;20036;-65
2023/05/11 11:44:43;;;;;;;4.28;1.35;;;24.10;53.20;;;;;;5091929;28;20059;-65
2023/05/11 11:47:22;;;;;;;1.95;1.50;;;24.30;53.30;;;;;;5072550;28;20503;-66
2023/05/11 11:49:54;;;;;;;2.92;1.80;;;24.10;55.40;;;;;;5091676;28;20032;-66
2023/05/11 11:52:27;;;;;;;2.92;1.60;;;24.20;48.30;;;;;;5090548;28;20082;-67
2023/05/11 11:55:00;;;;;;;2.70;1.65;;;24.10;54.70;;;;;;5091606;28;20036;-66
2023/05/11 11:57:31;;;;;;;4.25;1.52;;;24.10;53.60;;;;;;5091410;28;20032;-67
2023/05/11 12:00:11;;;;;;;8.50;1.85;;;24.20;54.20;;;;;;5091626;28;20034;-67
2023/05/11 12:02:43;;;;;;;1.95;1.80;;;24.20;53.50;;;;;;5090551;28;20325;-66
2023/05/11 12:05:17;;;;;;;3.30;2.03;;;24.20;51.80;;;;;;5091598;28;20046;-67
2023/05/11 12:07:49;;;;;;;3.17;1.80;;;24.20;45.00;;;;;;5091310;28;20043;-66
2023/05/11 12:10:17;;;;;;;2.60;2.40;;;24.20;42.20;;;;;;5091327;28;20056;-67
2023/05/11 12:12:44;;;;;;;9.18;2.30;;;24.10;45.40;;;;;;5091443;28;20036;-66
2023/05/11 12:15:23;;;;;;;11.50;4.95;;;24.10;44.90;;;;;;5088222;28;20105;-67
2023/05/11 12:17:48;;;;;;;3.00;2.25;;;24.10;47.50;;;;;;5091104;28;20354;-67
2023/05/11 12:20:17;;;;;;;3.17;2.00;;;24.00;49.10;;;;;;5091181;28;20303;-67
2023/05/11 12:22:45;;;;;;;3.35;1.70;;;24.10;48.80;;;;;;5091212;28;20039;-68
2023/05/11 12:25:13;;;;;;;1.63;1.50;;;24.30;50.90;;;;;;5091123;28;20499;-67
2023/05/11 12:27:54;;;;;;;1.40;1.30;;;24.30;45.30;;;;;;5091106;28;20039;-67
2023/05/11 12:30:26;;;;;;;1.42;1.33;;;24.30;47.70;;;;;;5091013;28;20028;-67
2023/05/11 12:32:53;;;;;;;1.92;1.48;;;24.00;50.10;;;;;;5091051;28;20410;-66
2023/05/11 12:35:31;;;;;;;2.20;2.00;;;24.30;51.50;;;;;;5090716;28;20062;-67
2023/05/11 12:37:59;;;;;;;1.65;1.55;;;24.30;52.30;;;;;;5090432;28;20383;-67
2023/05/11 12:40:26;;;;;;;3.10;2.03;;;24.40;51.90;;;;;;5073804;28;20515;-66
2023/05/11 12:42:52;;;;;;;2.00;1.52;;;24.30;49.50;;;;;;5091575;28;20047;-66
2023/05/11 12:45:19;;;;;;;3.67;1.63;;;24.30;51.00;;;;;;5091359;28;20120;-67
2023/05/11 12:47:47;;;;;;;2.08;1.67;;;24.30;45.70;;;;;;5105881;28;20403;-67
2023/05/11 12:50:14;;;;;;;2.17;1.50;;;24.20;49.10;;;;;;5089805;28;20066;-67
2023/05/11 12:52:40;;;;;;;2.10;1.42;;;24.30;50.50;;;;;;5091027;28;20047;-66
2023/05/11 12:55:06;;;;;;;2.97;1.83;;;24.30;51.10;;;;;;5090936;28;20043;-67